Airport View

Enter AWOS ICAO identifier for current METAR.

ex. KFNL

KCNO 192253Z 25010KT 10SM FEW200 28/06 A2987 RMK AO2 SLP111 T02780056

19 Oct 2019 23:02

Phone: 909-393-5823

Other Area AWOS: KAJO - KONT - KRAL - KPOC

TAF KONT 191725Z 1918/2024 VRB04KT P6SM SKC FM192200 26010KT P6SM SKC FM200300 VRB04KT P6SM SKC FM202100 34008KT P6SM SKC